sensor_id;sensor_type;location;lat;lon;timestamp;temperature;humidity
12039;DHT22;6080;48.818;9.526;2023-05-10T03:01:34;12.50;99.90
12039;DHT22;6080;48.818;9.526;2023-05-10T03:04:00;12.50;99.90
12039;DHT22;6080;48.818;9.526;2023-05-10T03:06:26;12.60;99.90
12039;DHT22;6080;48.818;9.526;2023-05-10T03:08:52;12.60;99.90
12039;DHT22;6080;48.818;9.526;2023-05-10T03:14:45;12.60;99.90
12039;DHT22;6080;48.818;9.526;2023-05-10T03:20:04;12.60;99.90
12039;DHT22;6080;48.818;9.526;2023-05-10T03:22:38;12.70;99.90
12039;DHT22;6080;48.818;9.526;2023-05-10T03:25:06;12.70;99.90
12039;DHT22;6080;48.818;9.526;2023-05-10T03:27:35;12.70;99.90
12039;DHT22;6080;48.818;9.526;2023-05-10T03:30:02;12.70;99.90
12039;DHT22;6080;48.818;9.526;2023-05-10T03:32:29;12.70;99.90
12039;DHT22;6080;48.818;9.526;2023-05-10T03:34:57;12.70;99.90
12039;DHT22;6080;48.818;9.526;2023-05-10T03:37:23;12.70;99.90
12039;DHT22;6080;48.818;9.526;2023-05-10T03:39:48;12.70;99.90
12039;DHT22;6080;48.818;9.526;2023-05-10T03:42:14;12.70;99.90
12039;DHT22;6080;48.818;9.526;2023-05-10T03:44:40;12.80;99.90
12039;DHT22;6080;48.818;9.526;2023-05-10T03:47:07;12.80;99.90
12039;DHT22;6080;48.818;9.526;2023-05-10T03:49:33;12.80;99.90
12039;DHT22;6080;48.818;9.526;2023-05-10T03:51:59;12.70;99.90
12039;DHT22;6080;48.818;9.526;2023-05-10T03:54:24;12.70;99.90
12039;DHT22;6080;48.818;9.526;2023-05-10T03:56:50;12.70;99.90
12039;DHT22;6080;48.818;9.526;2023-05-10T03:59:16;12.70;99.90
12039;DHT22;6080;48.818;9.526;2023-05-10T04:01:42;12.70;99.90
12039;DHT22;6080;48.818;9.526;2023-05-10T04:04:08;12.70;99.90
12039;DHT22;6080;48.818;9.526;2023-05-10T04:06:33;12.70;99.90
12039;DHT22;6080;48.818;9.526;2023-05-10T04:08:59;12.70;99.90
12039;DHT22;6080;48.818;9.526;2023-05-10T04:11:29;12.80;99.90
12039;DHT22;6080;48.818;9.526;2023-05-10T04:13:55;12.80;99.90
12039;DHT22;6080;48.818;9.526;2023-05-10T04:16:20;12.80;99.90
12039;DHT22;6080;48.818;9.526;2023-05-10T04:18:46;12.90;99.90
12039;DHT22;6080;48.818;9.526;2023-05-10T04:21:12;12.90;99.90
12039;DHT22;6080;48.818;9.526;2023-05-10T04:23:41;12.90;99.90
12039;DHT22;6080;48.818;9.526;2023-05-10T04:26:07;13.00;99.90
12039;DHT22;6080;48.818;9.526;2023-05-10T04:28:33;13.10;99.90
12039;DHT22;6080;48.818;9.526;2023-05-10T04:31:05;13.10;99.90
12039;DHT22;6080;48.818;9.526;2023-05-10T04:33:32;13.10;99.90
12039;DHT22;6080;48.818;9.526;2023-05-10T04:35:58;13.20;99.90
12039;DHT22;6080;48.818;9.526;2023-05-10T04:38:23;13.20;99.90
12039;DHT22;6080;48.818;9.526;2023-05-10T04:40:50;13.20;99.90
12039;DHT22;6080;48.818;9.526;2023-05-10T04:43:16;13.30;99.90
12039;DHT22;6080;48.818;9.526;2023-05-10T04:45:41;13.40;99.90
12039;DHT22;6080;48.818;9.526;2023-05-10T04:48:07;13.40;99.90
12039;DHT22;6080;48.818;9.526;2023-05-10T04:50:33;13.50;99.90
12039;DHT22;6080;48.818;9.526;2023-05-10T04:52:59;13.60;99.90
12039;DHT22;6080;48.818;9.526;2023-05-10T04:55:24;13.60;99.90
12039;DHT22;6080;48.818;9.526;2023-05-10T04:57:52;13.70;99.90
12039;DHT22;6080;48.818;9.526;2023-05-10T05:00:18;13.80;99.90
12039;DHT22;6080;48.818;9.526;2023-05-10T05:02:45;13.80;99.90
12039;DHT22;6080;48.818;9.526;2023-05-10T05:05:12;13.80;99.90
12039;DHT22;6080;48.818;9.526;2023-05-10T05:07:37;13.90;99.90
12039;DHT22;6080;48.818;9.526;2023-05-10T05:10:07;13.90;99.90
12039;DHT22;6080;48.818;9.526;2023-05-10T05:12:34;14.10;99.90
12039;DHT22;6080;48.818;9.526;2023-05-10T05:15:00;14.10;99.90
12039;DHT22;6080;48.818;9.526;2023-05-10T05:17:26;14.20;99.90
12039;DHT22;6080;48.818;9.526;2023-05-10T05:19:51;14.20;99.90
12039;DHT22;6080;48.818;9.526;2023-05-10T05:22:17;14.30;99.90
12039;DHT22;6080;48.818;9.526;2023-05-10T05:24:44;14.30;99.90
12039;DHT22;6080;48.818;9.526;2023-05-10T05:27:11;14.30;99.90
12039;DHT22;6080;48.818;9.526;2023-05-10T05:29:36;14.30;99.90
12039;DHT22;6080;48.818;9.526;2023-05-10T05:32:02;14.40;99.90
12039;DHT22;6080;48.818;9.526;2023-05-10T05:34:28;14.40;99.90
12039;DHT22;6080;48.818;9.526;2023-05-10T05:36:54;14.50;99.90
12039;DHT22;6080;48.818;9.526;2023-05-10T05:39:20;14.60;99.90
12039;DHT22;6080;48.818;9.526;2023-05-10T05:41:45;14.70;99.90
12039;DHT22;6080;48.818;9.526;2023-05-10T05:44:11;14.70;99.90
12039;DHT22;6080;48.818;9.526;2023-05-10T05:46:37;14.80;99.90
12039;DHT22;6080;48.818;9.526;2023-05-10T05:49:03;14.90;99.90
12039;DHT22;6080;48.818;9.526;2023-05-10T05:51:29;15.00;99.90
12039;DHT22;6080;48.818;9.526;2023-05-10T05:53:55;15.00;99.90
12039;DHT22;6080;48.818;9.526;2023-05-10T05:56:21;15.00;99.90
12039;DHT22;6080;48.818;9.526;2023-05-10T05:58:52;15.10;99.90
12039;DHT22;6080;48.818;9.526;2023-05-10T06:01:18;15.10;99.90
12039;DHT22;6080;48.818;9.526;2023-05-10T06:03:44;15.20;99.90
12039;DHT22;6080;48.818;9.526;2023-05-10T06:06:10;15.20;99.90
12039;DHT22;6080;48.818;9.526;2023-05-10T06:08:36;15.40;99.90
12039;DHT22;6080;48.818;9.526;2023-05-10T06:11:02;15.40;99.90
12039;DHT22;6080;48.818;9.526;2023-05-10T06:13:29;15.50;99.90
12039;DHT22;6080;48.818;9.526;2023-05-10T06:16:01;15.50;99.90
12039;DHT22;6080;48.818;9.526;2023-05-10T06:18:27;15.60;99.90
12039;DHT22;6080;48.818;9.526;2023-05-10T06:20:53;15.60;99.90
12039;DHT22;6080;48.818;9.526;2023-05-10T06:23:19;15.60;99.90
12039;DHT22;6080;48.818;9.526;2023-05-10T06:25:45;15.40;99.90
12039;DHT22;6080;48.818;9.526;2023-05-10T06:28:10;15.30;99.90
12039;DHT22;6080;48.818;9.526;2023-05-10T06:30:36;15.30;99.90
12039;DHT22;6080;48.818;9.526;2023-05-10T06:33:02;15.30;99.90
12039;DHT22;6080;48.818;9.526;2023-05-10T06:35:28;15.40;99.90
12039;DHT22;6080;48.818;9.526;2023-05-10T06:37:54;15.40;99.90
12039;DHT22;6080;48.818;9.526;2023-05-10T06:40:20;15.50;99.90
12039;DHT22;6080;48.818;9.526;2023-05-10T06:42:47;15.50;99.90
12039;DHT22;6080;48.818;9.526;2023-05-10T06:45:14;15.60;99.90
12039;DHT22;6080;48.818;9.526;2023-05-10T06:47:41;15.60;99.90
12039;DHT22;6080;48.818;9.526;2023-05-10T06:50:08;15.70;99.90
12039;DHT22;6080;48.818;9.526;2023-05-10T06:52:34;15.70;99.90
12039;DHT22;6080;48.818;9.526;2023-05-10T06:55:00;15.70;99.90
12039;DHT22;6080;48.818;9.526;2023-05-10T06:57:26;15.60;99.90
12039;DHT22;6080;48.818;9.526;2023-05-10T06:59:52;15.50;99.90
12039;DHT22;6080;48.818;9.526;2023-05-10T07:02:18;15.50;99.90
12039;DHT22;6080;48.818;9.526;2023-05-10T07:04:43;15.50;99.90
12039;DHT22;6080;48.818;9.526;2023-05-10T07:07:09;15.40;99.90
12039;DHT22;6080;48.818;9.526;2023-05-10T07:09:35;15.40;99.90
12039;DHT22;6080;48.818;9.526;2023-05-10T07:12:01;15.30;99.90
12039;DHT22;6080;48.818;9.526;2023-05-10T07:14:27;15.30;99.90
12039;DHT22;6080;48.818;9.526;2023-05-10T07:16:53;15.30;99.90
12039;DHT22;6080;48.818;9.526;2023-05-10T07:19:19;15.20;99.90
12039;DHT22;6080;48.818;9.526;2023-05-10T07:21:45;15.30;99.90
12039;DHT22;6080;48.818;9.526;2023-05-10T07:24:11;15.50;99.90
12039;DHT22;6080;48.818;9.526;2023-05-10T07:26:37;15.90;99.90
12039;DHT22;6080;48.818;9.526;2023-05-10T07:29:02;16.00;99.90
12039;DHT22;6080;48.818;9.526;2023-05-10T07:31:28;16.20;99.90
12039;DHT22;6080;48.818;9.526;2023-05-10T07:33:54;16.50;99.90
12039;DHT22;6080;48.818;9.526;2023-05-10T07:36:20;16.70;99.90
12039;DHT22;6080;48.818;9.526;2023-05-10T07:38:45;16.80;99.90
12039;DHT22;6080;48.818;9.526;2023-05-10T07:41:12;16.90;99.90
12039;DHT22;6080;48.818;9.526;2023-05-10T07:43:38;16.80;99.90
12039;DHT22;6080;48.818;9.526;2023-05-10T07:46:03;16.70;99.90
12039;DHT22;6080;48.818;9.526;2023-05-10T07:48:29;16.60;99.90
12039;DHT22;6080;48.818;9.526;2023-05-10T07:50:55;16.60;99.90
12039;DHT22;6080;48.818;9.526;2023-05-10T07:53:21;16.80;99.90
12039;DHT22;6080;48.818;9.526;2023-05-10T07:55:50;16.90;99.90
12039;DHT22;6080;48.818;9.526;2023-05-10T07:58:17;17.00;99.90
12039;DHT22;6080;48.818;9.526;2023-05-10T08:00:43;17.10;99.90
12039;DHT22;6080;48.818;9.526;2023-05-10T08:03:09;17.30;99.90
12039;DHT22;6080;48.818;9.526;2023-05-10T08:05:34;17.50;99.90
12039;DHT22;6080;48.818;9.526;2023-05-10T08:08:00;17.60;99.90
12039;DHT22;6080;48.818;9.526;2023-05-10T08:10:26;17.70;99.90
12039;DHT22;6080;48.818;9.526;2023-05-10T08:12:52;17.60;99.90
12039;DHT22;6080;48.818;9.526;2023-05-10T08:15:17;17.50;99.90
12039;DHT22;6080;48.818;9.526;2023-05-10T08:17:43;17.60;99.90
12039;DHT22;6080;48.818;9.526;2023-05-10T08:20:09;17.50;99.90
12039;DHT22;6080;48.818;9.526;2023-05-10T08:22:35;17.60;99.90
12039;DHT22;6080;48.818;9.526;2023-05-10T08:25:01;17.60;99.90
12039;DHT22;6080;48.818;9.526;2023-05-10T08:27:26;17.60;99.90
12039;DHT22;6080;48.818;9.526;2023-05-10T08:29:52;17.50;99.90
12039;DHT22;6080;48.818;9.526;2023-05-10T08:32:18;17.50;99.90
12039;DHT22;6080;48.818;9.526;2023-05-10T08:34:43;17.70;99.90
12039;DHT22;6080;48.818;9.526;2023-05-10T08:37:09;17.70;99.90
12039;DHT22;6080;48.818;9.526;2023-05-10T08:39:38;17.80;99.90
12039;DHT22;6080;48.818;9.526;2023-05-10T08:42:04;17.80;99.90
12039;DHT22;6080;48.818;9.526;2023-05-10T08:44:35;17.70;99.90
12039;DHT22;6080;48.818;9.526;2023-05-10T08:47:05;17.50;99.90
12039;DHT22;6080;48.818;9.526;2023-05-10T08:49:34;17.30;99.90
12039;DHT22;6080;48.818;9.526;2023-05-10T08:52:03;17.30;99.90
12039;DHT22;6080;48.818;9.526;2023-05-10T08:54:31;17.20;99.90
12039;DHT22;6080;48.818;9.526;2023-05-10T08:56:57;16.80;99.90
12039;DHT22;6080;48.818;9.526;2023-05-10T08:59:23;16.50;99.90
12039;DHT22;6080;48.818;9.526;2023-05-10T09:01:49;16.30;99.90
12039;DHT22;6080;48.818;9.526;2023-05-10T09:04:16;16.30;99.90
12039;DHT22;6080;48.818;9.526;2023-05-10T09:06:41;16.20;99.90
12039;DHT22;6080;48.818;9.526;2023-05-10T09:09:07;16.20;99.90
12039;DHT22;6080;48.818;9.526;2023-05-10T09:11:33;16.20;99.90
12039;DHT22;6080;48.818;9.526;2023-05-10T09:14:00;16.20;99.90
12039;DHT22;6080;48.818;9.526;2023-05-10T09:16:26;16.30;99.90
12039;DHT22;6080;48.818;9.526;2023-05-10T09:18:52;16.50;99.90
12039;DHT22;6080;48.818;9.526;2023-05-10T09:21:19;16.70;99.90
12039;DHT22;6080;48.818;9.526;2023-05-10T09:23:46;16.90;99.90
12039;DHT22;6080;48.818;9.526;2023-05-10T09:26:12;17.10;99.90
12039;DHT22;6080;48.818;9.526;2023-05-10T09:28:58;17.20;99.90
12039;DHT22;6080;48.818;9.526;2023-05-10T09:31:24;17.20;99.90
12039;DHT22;6080;48.818;9.526;2023-05-10T09:34:08;17.10;99.90
12039;DHT22;6080;48.818;9.526;2023-05-10T09:36:33;17.00;99.90
12039;DHT22;6080;48.818;9.526;2023-05-10T09:38:59;16.90;99.90
12039;DHT22;6080;48.818;9.526;2023-05-10T09:41:25;17.00;99.90
12039;DHT22;6080;48.818;9.526;2023-05-10T09:43:55;17.10;99.90
12039;DHT22;6080;48.818;9.526;2023-05-10T09:46:21;17.10;99.90
12039;DHT22;6080;48.818;9.526;2023-05-10T09:48:48;17.20;99.90
12039;DHT22;6080;48.818;9.526;2023-05-10T09:51:24;17.30;99.90
12039;DHT22;6080;48.818;9.526;2023-05-10T09:54:12;17.40;99.90
12039;DHT22;6080;48.818;9.526;2023-05-10T09:56:38;17.70;99.90
12039;DHT22;6080;48.818;9.526;2023-05-10T09:59:10;18.10;99.90
12039;DHT22;6080;48.818;9.526;2023-05-10T10:01:36;18.40;99.90
12039;DHT22;6080;48.818;9.526;2023-05-10T10:04:04;18.40;99.90
12039;DHT22;6080;48.818;9.526;2023-05-10T10:06:38;18.50;99.90
12039;DHT22;6080;48.818;9.526;2023-05-10T10:09:05;18.50;99.90
12039;DHT22;6080;48.818;9.526;2023-05-10T10:11:33;18.60;99.90
12039;DHT22;6080;48.818;9.526;2023-05-10T10:13:59;18.50;99.90
12039;DHT22;6080;48.818;9.526;2023-05-10T10:16:30;18.10;99.90
12039;DHT22;6080;48.818;9.526;2023-05-10T10:18:56;17.90;99.90
12039;DHT22;6080;48.818;9.526;2023-05-10T10:21:23;18.10;99.90
12039;DHT22;6080;48.818;9.526;2023-05-10T10:23:49;18.20;99.90
12039;DHT22;6080;48.818;9.526;2023-05-10T10:26:17;18.40;99.90
12039;DHT22;6080;48.818;9.526;2023-05-10T10:29:04;18.50;99.90
12039;DHT22;6080;48.818;9.526;2023-05-10T10:31:40;18.70;99.90
12039;DHT22;6080;48.818;9.526;2023-05-10T10:34:10;18.60;99.90
12039;DHT22;6080;48.818;9.526;2023-05-10T10:36:45;18.60;99.90
12039;DHT22;6080;48.818;9.526;2023-05-10T10:39:12;18.50;99.90
12039;DHT22;6080;48.818;9.526;2023-05-10T10:41:41;18.30;99.90
12039;DHT22;6080;48.818;9.526;2023-05-10T10:49:42;17.80;99.90
12039;DHT22;6080;48.818;9.526;2023-05-10T10:57:31;17.50;99.90
12039;DHT22;6080;48.818;9.526;2023-05-10T11:02:48;17.10;99.90
12039;DHT22;6080;48.818;9.526;2023-05-10T11:08:00;16.80;99.90
12039;DHT22;6080;48.818;9.526;2023-05-10T11:10:26;16.90;99.90
12039;DHT22;6080;48.818;9.526;2023-05-10T11:13:03;16.80;99.90
12039;DHT22;6080;48.818;9.526;2023-05-10T11:18:00;17.00;99.90
12039;DHT22;6080;48.818;9.526;2023-05-10T11:20:42;17.00;99.90
12039;DHT22;6080;48.818;9.526;2023-05-10T11:23:12;17.10;99.90
12039;DHT22;6080;48.818;9.526;2023-05-10T11:25:45;17.30;99.90
12039;DHT22;6080;48.818;9.526;2023-05-10T11:28:12;17.60;99.90
12039;DHT22;6080;48.818;9.526;2023-05-10T11:30:43;17.70;99.90
12039;DHT22;6080;48.818;9.526;2023-05-10T11:33:09;17.60;99.90
12039;DHT22;6080;48.818;9.526;2023-05-10T11:35:39;17.70;99.90
12039;DHT22;6080;48.818;9.526;2023-05-10T11:38:09;18.00;99.90
12039;DHT22;6080;48.818;9.526;2023-05-10T11:40:36;18.40;99.90
12039;DHT22;6080;48.818;9.526;2023-05-10T11:43:03;18.40;99.90
12039;DHT22;6080;48.818;9.526;2023-05-10T11:45:33;18.50;99.90
12039;DHT22;6080;48.818;9.526;2023-05-10T11:47:59;18.50;99.90
12039;DHT22;6080;48.818;9.526;2023-05-10T11:50:25;18.20;99.90
12039;DHT22;6080;48.818;9.526;2023-05-10T11:53:00;18.20;99.90
12039;DHT22;6080;48.818;9.526;2023-05-10T11:55:26;18.20;99.90
12039;DHT22;6080;48.818;9.526;2023-05-10T11:57:52;18.10;99.90
12039;DHT22;6080;48.818;9.526;2023-05-10T12:00:18;17.70;99.90
12039;DHT22;6080;48.818;9.526;2023-05-10T12:02:45;17.50;99.90
12039;DHT22;6080;48.818;9.526;2023-05-10T12:05:11;17.40;99.90
12039;DHT22;6080;48.818;9.526;2023-05-10T12:07:37;17.30;99.90
12039;DHT22;6080;48.818;9.526;2023-05-10T12:10:07;17.30;99.90
12039;DHT22;6080;48.818;9.526;2023-05-10T12:12:41;17.30;99.90
12039;DHT22;6080;48.818;9.526;2023-05-10T12:15:18;17.20;99.90
12039;DHT22;6080;48.818;9.526;2023-05-10T12:17:48;17.30;99.90
12039;DHT22;6080;48.818;9.526;2023-05-10T12:20:21;17.30;99.90
12039;DHT22;6080;48.818;9.526;2023-05-10T12:22:53;17.30;99.90
12039;DHT22;6080;48.818;9.526;2023-05-10T12:25:21;17.30;99.90
12039;DHT22;6080;48.818;9.526;2023-05-10T12:27:54;17.40;99.90
12039;DHT22;6080;48.818;9.526;2023-05-10T12:30:29;17.30;99.90
12039;DHT22;6080;48.818;9.526;2023-05-10T12:33:11;17.30;99.90
12039;DHT22;6080;48.818;9.526;2023-05-10T12:35:51;17.30;99.90
12039;DHT22;6080;48.818;9.526;2023-05-10T12:40:52;17.10;99.90
12039;DHT22;6080;48.818;9.526;2023-05-10T12:43:18;16.90;99.90
12039;DHT22;6080;48.818;9.526;2023-05-10T12:45:43;16.70;99.90
12039;DHT22;6080;48.818;9.526;2023-05-10T12:48:13;16.80;99.90
12039;DHT22;6080;48.818;9.526;2023-05-10T12:50:39;16.80;99.90
12039;DHT22;6080;48.818;9.526;2023-05-10T12:53:05;16.80;99.90
12039;DHT22;6080;48.818;9.526;2023-05-10T12:55:30;16.70;99.90
12039;DHT22;6080;48.818;9.526;2023-05-10T12:57:56;16.80;99.90
12039;DHT22;6080;48.818;9.526;2023-05-10T13:00:24;16.80;99.90
12039;DHT22;6080;48.818;9.526;2023-05-10T13:02:50;16.90;99.90
12039;DHT22;6080;48.818;9.526;2023-05-10T13:05:16;16.80;99.90
12039;DHT22;6080;48.818;9.526;2023-05-10T13:07:42;16.80;99.90
12039;DHT22;6080;48.818;9.526;2023-05-10T13:10:09;17.00;99.90
12039;DHT22;6080;48.818;9.526;2023-05-10T13:12:36;17.20;99.90
12039;DHT22;6080;48.818;9.526;2023-05-10T13:15:02;17.50;99.90
12039;DHT22;6080;48.818;9.526;2023-05-10T13:17:28;17.80;99.90
12039;DHT22;6080;48.818;9.526;2023-05-10T13:19:54;17.90;99.90
12039;DHT22;6080;48.818;9.526;2023-05-10T13:22:20;18.00;99.90
12039;DHT22;6080;48.818;9.526;2023-05-10T13:24:46;18.10;99.90
12039;DHT22;6080;48.818;9.526;2023-05-10T13:27:12;18.40;99.90
12039;DHT22;6080;48.818;9.526;2023-05-10T13:29:37;18.50;99.90
12039;DHT22;6080;48.818;9.526;2023-05-10T13:32:03;18.50;99.90
12039;DHT22;6080;48.818;9.526;2023-05-10T13:34:29;18.40;99.90
12039;DHT22;6080;48.818;9.526;2023-05-10T13:36:55;18.20;99.90
12039;DHT22;6080;48.818;9.526;2023-05-10T13:39:22;18.10;99.90
12039;DHT22;6080;48.818;9.526;2023-05-10T13:41:48;17.80;99.90
12039;DHT22;6080;48.818;9.526;2023-05-10T13:44:14;17.80;99.90
12039;DHT22;6080;48.818;9.526;2023-05-10T13:46:41;17.70;99.90
12039;DHT22;6080;48.818;9.526;2023-05-10T13:49:09;17.70;99.90
12039;DHT22;6080;48.818;9.526;2023-05-10T13:51:35;17.70;99.90
12039;DHT22;6080;48.818;9.526;2023-05-10T13:54:02;17.60;99.90
12039;DHT22;6080;48.818;9.526;2023-05-10T13:56:28;17.70;99.90
12039;DHT22;6080;48.818;9.526;2023-05-10T13:58:53;17.80;99.90
12039;DHT22;6080;48.818;9.526;2023-05-10T14:01:19;17.80;99.90
12039;DHT22;6080;48.818;9.526;2023-05-10T14:03:45;17.80;99.90
12039;DHT22;6080;48.818;9.526;2023-05-10T14:06:11;17.60;99.90
12039;DHT22;6080;48.818;9.526;2023-05-10T14:08:36;17.60;99.90
12039;DHT22;6080;48.818;9.526;2023-05-10T14:11:02;17.60;99.90
12039;DHT22;6080;48.818;9.526;2023-05-10T14:13:28;17.50;99.90
12039;DHT22;6080;48.818;9.526;2023-05-10T14:15:54;17.50;99.90
12039;DHT22;6080;48.818;9.526;2023-05-10T14:18:20;17.50;99.90
12039;DHT22;6080;48.818;9.526;2023-05-10T14:20:46;17.50;99.90
12039;DHT22;6080;48.818;9.526;2023-05-10T14:23:12;17.60;99.90
12039;DHT22;6080;48.818;9.526;2023-05-10T14:25:40;17.80;99.90
12039;DHT22;6080;48.818;9.526;2023-05-10T14:28:06;18.20;99.90
12039;DHT22;6080;48.818;9.526;2023-05-10T14:30:32;18.30;99.90
12039;DHT22;6080;48.818;9.526;2023-05-10T14:33:01;18.50;99.90
12039;DHT22;6080;48.818;9.526;2023-05-10T14:35:27;18.70;99.90
12039;DHT22;6080;48.818;9.526;2023-05-10T14:37:53;18.70;99.90
12039;DHT22;6080;48.818;9.526;2023-05-10T14:40:19;18.70;99.90
12039;DHT22;6080;48.818;9.526;2023-05-10T14:42:46;18.80;99.90
12039;DHT22;6080;48.818;9.526;2023-05-10T14:45:12;18.90;99.90
12039;DHT22;6080;48.818;9.526;2023-05-10T14:47:38;18.90;99.90
12039;DHT22;6080;48.818;9.526;2023-05-10T14:50:04;18.90;99.90
12039;DHT22;6080;48.818;9.526;2023-05-10T14:52:30;18.90;99.90
12039;DHT22;6080;48.818;9.526;2023-05-10T14:54:56;18.60;99.90
12039;DHT22;6080;48.818;9.526;2023-05-10T14:57:24;18.40;99.90
12039;DHT22;6080;48.818;9.526;2023-05-10T14:59:50;18.40;99.90
12039;DHT22;6080;48.818;9.526;2023-05-10T15:02:15;18.20;99.90
12039;DHT22;6080;48.818;9.526;2023-05-10T15:04:41;18.20;99.90
12039;DHT22;6080;48.818;9.526;2023-05-10T15:07:07;18.20;99.90
12039;DHT22;6080;48.818;9.526;2023-05-10T15:09:33;18.20;99.90
12039;DHT22;6080;48.818;9.526;2023-05-10T15:11:59;18.10;99.90
12039;DHT22;6080;48.818;9.526;2023-05-10T15:14:24;18.10;99.90
12039;DHT22;6080;48.818;9.526;2023-05-10T15:16:50;18.20;99.90
12039;DHT22;6080;48.818;9.526;2023-05-10T15:19:16;18.20;99.90
12039;DHT22;6080;48.818;9.526;2023-05-10T15:21:42;18.20;99.90
12039;DHT22;6080;48.818;9.526;2023-05-10T15:24:09;18.20;99.90
12039;DHT22;6080;48.818;9.526;2023-05-10T15:26:35;18.20;99.90
12039;DHT22;6080;48.818;9.526;2023-05-10T15:29:01;18.20;99.90
12039;DHT22;6080;48.818;9.526;2023-05-10T15:31:27;18.40;99.90
12039;DHT22;6080;48.818;9.526;2023-05-10T15:33:59;18.40;99.90
12039;DHT22;6080;48.818;9.526;2023-05-10T15:36:25;18.30;99.90
12039;DHT22;6080;48.818;9.526;2023-05-10T15:38:52;18.50;99.90
12039;DHT22;6080;48.818;9.526;2023-05-10T15:41:18;18.60;99.90
12039;DHT22;6080;48.818;9.526;2023-05-10T15:43:44;18.50;99.90
12039;DHT22;6080;48.818;9.526;2023-05-10T15:46:09;18.60;99.90
12039;DHT22;6080;48.818;9.526;2023-05-10T15:48:35;18.50;99.90
12039;DHT22;6080;48.818;9.526;2023-05-10T15:51:01;18.40;99.90
12039;DHT22;6080;48.818;9.526;2023-05-10T15:53:26;18.40;99.90
12039;DHT22;6080;48.818;9.526;2023-05-10T15:55:53;18.50;99.90
12039;DHT22;6080;48.818;9.526;2023-05-10T15:58:19;18.40;99.90
12039;DHT22;6080;48.818;9.526;2023-05-10T16:00:45;18.40;99.90
12039;DHT22;6080;48.818;9.526;2023-05-10T16:03:11;18.40;99.90
12039;DHT22;6080;48.818;9.526;2023-05-10T16:05:37;18.40;99.90
12039;DHT22;6080;48.818;9.526;2023-05-10T16:08:02;18.40;99.90
12039;DHT22;6080;48.818;9.526;2023-05-10T16:10:31;18.30;99.90
12039;DHT22;6080;48.818;9.526;2023-05-10T16:12:57;18.20;99.90
12039;DHT22;6080;48.818;9.526;2023-05-10T16:15:23;18.00;99.90
12039;DHT22;6080;48.818;9.526;2023-05-10T16:17:49;17.90;99.90
12039;DHT22;6080;48.818;9.526;2023-05-10T16:20:15;18.00;99.90
12039;DHT22;6080;48.818;9.526;2023-05-10T16:22:41;18.00;99.90
12039;DHT22;6080;48.818;9.526;2023-05-10T16:25:09;18.00;99.90
12039;DHT22;6080;48.818;9.526;2023-05-10T16:27:36;17.90;99.90
12039;DHT22;6080;48.818;9.526;2023-05-10T16:30:02;17.80;99.90
12039;DHT22;6080;48.818;9.526;2023-05-10T16:32:28;17.60;99.90
12039;DHT22;6080;48.818;9.526;2023-05-10T16:34:54;17.50;99.90
12039;DHT22;6080;48.818;9.526;2023-05-10T16:37:20;17.40;99.90
12039;DHT22;6080;48.818;9.526;2023-05-10T16:39:46;17.40;99.90
12039;DHT22;6080;48.818;9.526;2023-05-10T16:42:11;17.40;99.90
12039;DHT22;6080;48.818;9.526;2023-05-10T16:44:37;17.40;99.90
12039;DHT22;6080;48.818;9.526;2023-05-10T16:47:03;17.40;99.90
12039;DHT22;6080;48.818;9.526;2023-05-10T16:49:29;17.30;99.90
12039;DHT22;6080;48.818;9.526;2023-05-10T16:51:55;17.40;99.90
12039;DHT22;6080;48.818;9.526;2023-05-10T16:54:21;17.40;99.90
12039;DHT22;6080;48.818;9.526;2023-05-10T16:56:47;17.40;99.90
12039;DHT22;6080;48.818;9.526;2023-05-10T16:59:13;17.30;99.90
12039;DHT22;6080;48.818;9.526;2023-05-10T17:01:39;17.30;99.90
12039;DHT22;6080;48.818;9.526;2023-05-10T17:04:05;17.20;99.90
12039;DHT22;6080;48.818;9.526;2023-05-10T17:06:31;17.10;99.90
12039;DHT22;6080;48.818;9.526;2023-05-10T17:08:57;17.10;99.90
12039;DHT22;6080;48.818;9.526;2023-05-10T17:11:23;17.10;99.90
12039;DHT22;6080;48.818;9.526;2023-05-10T17:13:50;17.20;99.90
12039;DHT22;6080;48.818;9.526;2023-05-10T17:16:16;17.10;99.90
12039;DHT22;6080;48.818;9.526;2023-05-10T17:18:43;17.10;99.90
12039;DHT22;6080;48.818;9.526;2023-05-10T17:21:10;17.10;99.90
12039;DHT22;6080;48.818;9.526;2023-05-10T17:23:36;17.00;99.90
12039;DHT22;6080;48.818;9.526;2023-05-10T17:26:05;17.00;99.90
12039;DHT22;6080;48.818;9.526;2023-05-10T17:28:31;16.90;99.90
12039;DHT22;6080;48.818;9.526;2023-05-10T17:30:57;16.80;99.90
12039;DHT22;6080;48.818;9.526;2023-05-10T17:33:24;16.80;99.90
12039;DHT22;6080;48.818;9.526;2023-05-10T17:35:51;16.80;99.90
12039;DHT22;6080;48.818;9.526;2023-05-10T17:38:17;16.70;99.90
12039;DHT22;6080;48.818;9.526;2023-05-10T17:40:43;16.60;99.90
12039;DHT22;6080;48.818;9.526;2023-05-10T17:43:08;16.50;99.90
12039;DHT22;6080;48.818;9.526;2023-05-10T17:45:34;16.50;99.90
12039;DHT22;6080;48.818;9.526;2023-05-10T17:48:00;16.40;99.90
12039;DHT22;6080;48.818;9.526;2023-05-10T17:50:26;16.30;99.90
12039;DHT22;6080;48.818;9.526;2023-05-10T17:52:53;16.20;99.90
12039;DHT22;6080;48.818;9.526;2023-05-10T17:55:19;16.10;99.90
12039;DHT22;6080;48.818;9.526;2023-05-10T17:57:45;16.00;99.90
12039;DHT22;6080;48.818;9.526;2023-05-10T18:00:13;16.00;99.90
12039;DHT22;6080;48.818;9.526;2023-05-10T18:02:39;15.80;99.90
12039;DHT22;6080;48.818;9.526;2023-05-10T18:05:05;15.60;99.90
12039;DHT22;6080;48.818;9.526;2023-05-10T18:07:31;15.60;99.90
12039;DHT22;6080;48.818;9.526;2023-05-10T18:09:57;15.60;99.90
12039;DHT22;6080;48.818;9.526;2023-05-10T18:12:23;15.60;99.90
12039;DHT22;6080;48.818;9.526;2023-05-10T18:14:49;15.60;99.90
12039;DHT22;6080;48.818;9.526;2023-05-10T18:17:15;15.60;99.90
12039;DHT22;6080;48.818;9.526;2023-05-10T18:19:40;15.60;99.90
12039;DHT22;6080;48.818;9.526;2023-05-10T18:22:06;15.50;99.90
12039;DHT22;6080;48.818;9.526;2023-05-10T18:24:32;15.50;99.90
12039;DHT22;6080;48.818;9.526;2023-05-10T18:26:58;15.40;99.90
12039;DHT22;6080;48.818;9.526;2023-05-10T18:29:25;15.30;99.90
12039;DHT22;6080;48.818;9.526;2023-05-10T18:31:50;15.30;99.90
12039;DHT22;6080;48.818;9.526;2023-05-10T18:34:16;15.20;99.90
12039;DHT22;6080;48.818;9.526;2023-05-10T18:36:43;15.10;99.90
12039;DHT22;6080;48.818;9.526;2023-05-10T18:39:10;15.10;99.90
12039;DHT22;6080;48.818;9.526;2023-05-10T18:41:36;15.10;99.90
12039;DHT22;6080;48.818;9.526;2023-05-10T18:44:02;15.10;99.90
12039;DHT22;6080;48.818;9.526;2023-05-10T18:46:28;15.10;99.90
12039;DHT22;6080;48.818;9.526;2023-05-10T18:48:54;15.00;99.90
12039;DHT22;6080;48.818;9.526;2023-05-10T18:51:20;14.90;99.90
12039;DHT22;6080;48.818;9.526;2023-05-10T18:53:50;14.90;99.90
12039;DHT22;6080;48.818;9.526;2023-05-10T18:56:16;14.80;99.90
12039;DHT22;6080;48.818;9.526;2023-05-10T18:58:42;14.80;99.90
12039;DHT22;6080;48.818;9.526;2023-05-10T19:01:07;14.70;99.90
12039;DHT22;6080;48.818;9.526;2023-05-10T19:03:34;14.60;99.90
12039;DHT22;6080;48.818;9.526;2023-05-10T19:06:00;14.60;99.90
12039;DHT22;6080;48.818;9.526;2023-05-10T19:08:26;14.60;99.90
12039;DHT22;6080;48.818;9.526;2023-05-10T19:10:51;14.50;99.90